sensor_id;sensor_type;location;lat;lon;timestamp;temperature;humidity
45066;DHT22;30830;53.704;10.004;2023-05-14T00:01:50;12.50;99.90
45066;DHT22;30830;53.704;10.004;2023-05-14T00:04:16;12.50;99.90
45066;DHT22;30830;53.704;10.004;2023-05-14T00:06:44;12.40;99.90
45066;DHT22;30830;53.704;10.004;2023-05-14T00:09:10;12.40;99.90
45066;DHT22;30830;53.704;10.004;2023-05-14T00:11:36;12.40;99.90
45066;DHT22;30830;53.704;10.004;2023-05-14T00:14:01;12.30;99.90
45066;DHT22;30830;53.704;10.004;2023-05-14T00:16:27;12.30;99.90
45066;DHT22;30830;53.704;10.004;2023-05-14T00:18:52;12.20;99.90
45066;DHT22;30830;53.704;10.004;2023-05-14T00:21:18;12.20;99.90
45066;DHT22;30830;53.704;10.004;2023-05-14T00:23:44;12.10;99.90
45066;DHT22;30830;53.704;10.004;2023-05-14T00:26:09;12.00;99.90
45066;DHT22;30830;53.704;10.004;2023-05-14T00:28:35;11.90;99.90
45066;DHT22;30830;53.704;10.004;2023-05-14T00:31:00;11.80;99.90
45066;DHT22;30830;53.704;10.004;2023-05-14T00:33:26;11.80;99.90
45066;DHT22;30830;53.704;10.004;2023-05-14T00:35:51;11.70;99.90
45066;DHT22;30830;53.704;10.004;2023-05-14T00:38:17;11.60;99.90
45066;DHT22;30830;53.704;10.004;2023-05-14T00:40:44;11.60;99.90
45066;DHT22;30830;53.704;10.004;2023-05-14T00:43:16;11.50;99.90
45066;DHT22;30830;53.704;10.004;2023-05-14T00:45:43;11.50;99.90
45066;DHT22;30830;53.704;10.004;2023-05-14T00:48:09;11.40;99.90
45066;DHT22;30830;53.704;10.004;2023-05-14T00:50:34;11.30;99.90
45066;DHT22;30830;53.704;10.004;2023-05-14T00:53:00;11.30;99.90
45066;DHT22;30830;53.704;10.004;2023-05-14T00:55:27;11.20;99.90
45066;DHT22;30830;53.704;10.004;2023-05-14T00:57:56;11.20;99.90
45066;DHT22;30830;53.704;10.004;2023-05-14T01:00:23;11.20;99.90
45066;DHT22;30830;53.704;10.004;2023-05-14T01:02:48;11.20;99.90
45066;DHT22;30830;53.704;10.004;2023-05-14T01:05:14;11.20;99.90
45066;DHT22;30830;53.704;10.004;2023-05-14T01:08:06;11.20;99.90
45066;DHT22;30830;53.704;10.004;2023-05-14T01:10:51;11.20;99.90
45066;DHT22;30830;53.704;10.004;2023-05-14T01:15:58;11.20;99.90
45066;DHT22;30830;53.704;10.004;2023-05-14T01:18:25;11.20;99.90
45066;DHT22;30830;53.704;10.004;2023-05-14T01:20:53;11.20;99.90
45066;DHT22;30830;53.704;10.004;2023-05-14T01:23:19;11.20;99.90
45066;DHT22;30830;53.704;10.004;2023-05-14T01:25:44;11.20;99.90
45066;DHT22;30830;53.704;10.004;2023-05-14T01:28:16;11.20;99.90
45066;DHT22;30830;53.704;10.004;2023-05-14T01:30:56;11.10;99.90
45066;DHT22;30830;53.704;10.004;2023-05-14T01:33:25;11.10;99.90
45066;DHT22;30830;53.704;10.004;2023-05-14T01:35:52;11.00;99.90
45066;DHT22;30830;53.704;10.004;2023-05-14T01:38:19;11.10;99.90
45066;DHT22;30830;53.704;10.004;2023-05-14T01:40:46;11.00;99.90
45066;DHT22;30830;53.704;10.004;2023-05-14T01:43:12;11.00;99.90
45066;DHT22;30830;53.704;10.004;2023-05-14T01:45:39;11.00;99.90
45066;DHT22;30830;53.704;10.004;2023-05-14T01:48:05;11.00;99.90
45066;DHT22;30830;53.704;10.004;2023-05-14T01:50:30;11.00;99.90
45066;DHT22;30830;53.704;10.004;2023-05-14T01:52:56;10.90;99.90
45066;DHT22;30830;53.704;10.004;2023-05-14T01:55:22;10.90;99.90
45066;DHT22;30830;53.704;10.004;2023-05-14T01:57:52;10.90;99.90
45066;DHT22;30830;53.704;10.004;2023-05-14T02:00:18;10.80;99.90
45066;DHT22;30830;53.704;10.004;2023-05-14T02:02:44;10.80;99.90
45066;DHT22;30830;53.704;10.004;2023-05-14T02:05:10;10.60;99.90
45066;DHT22;30830;53.704;10.004;2023-05-14T02:07:36;10.60;99.90
45066;DHT22;30830;53.704;10.004;2023-05-14T02:10:02;10.50;99.90
45066;DHT22;30830;53.704;10.004;2023-05-14T02:12:28;10.40;99.90
45066;DHT22;30830;53.704;10.004;2023-05-14T02:14:53;10.40;99.90
45066;DHT22;30830;53.704;10.004;2023-05-14T02:17:19;10.30;99.90
45066;DHT22;30830;53.704;10.004;2023-05-14T02:19:44;10.30;99.90
45066;DHT22;30830;53.704;10.004;2023-05-14T02:22:12;10.30;99.90
45066;DHT22;30830;53.704;10.004;2023-05-14T02:24:37;10.20;99.90
45066;DHT22;30830;53.704;10.004;2023-05-14T02:27:04;10.20;99.90
45066;DHT22;30830;53.704;10.004;2023-05-14T02:29:30;10.10;99.90
45066;DHT22;30830;53.704;10.004;2023-05-14T02:31:56;10.10;99.90
45066;DHT22;30830;53.704;10.004;2023-05-14T02:34:22;10.10;99.90
45066;DHT22;30830;53.704;10.004;2023-05-14T02:36:47;10.10;99.90
45066;DHT22;30830;53.704;10.004;2023-05-14T02:39:13;10.00;99.90
45066;DHT22;30830;53.704;10.004;2023-05-14T02:41:38;10.00;99.90
45066;DHT22;30830;53.704;10.004;2023-05-14T02:44:04;9.90;99.90
45066;DHT22;30830;53.704;10.004;2023-05-14T02:46:30;9.90;99.90
45066;DHT22;30830;53.704;10.004;2023-05-14T02:48:56;9.90;99.90
45066;DHT22;30830;53.704;10.004;2023-05-14T02:51:22;9.90;99.90
45066;DHT22;30830;53.704;10.004;2023-05-14T02:53:47;9.90;99.90
45066;DHT22;30830;53.704;10.004;2023-05-14T02:56:13;9.80;99.90
45066;DHT22;30830;53.704;10.004;2023-05-14T02:58:39;9.80;99.90
45066;DHT22;30830;53.704;10.004;2023-05-14T03:01:04;9.70;99.90
45066;DHT22;30830;53.704;10.004;2023-05-14T03:03:30;9.70;99.90
45066;DHT22;30830;53.704;10.004;2023-05-14T03:05:55;9.70;99.90
45066;DHT22;30830;53.704;10.004;2023-05-14T03:08:21;9.70;99.90
45066;DHT22;30830;53.704;10.004;2023-05-14T03:10:46;9.70;99.90
45066;DHT22;30830;53.704;10.004;2023-05-14T03:13:12;9.70;99.90
45066;DHT22;30830;53.704;10.004;2023-05-14T03:15:42;9.60;99.90
45066;DHT22;30830;53.704;10.004;2023-05-14T03:18:07;9.50;99.90
45066;DHT22;30830;53.704;10.004;2023-05-14T03:20:33;9.50;99.90
45066;DHT22;30830;53.704;10.004;2023-05-14T03:22:59;9.50;99.90
45066;DHT22;30830;53.704;10.004;2023-05-14T03:25:24;9.50;99.90
45066;DHT22;30830;53.704;10.004;2023-05-14T03:27:50;9.40;99.90
45066;DHT22;30830;53.704;10.004;2023-05-14T03:30:15;9.40;99.90
45066;DHT22;30830;53.704;10.004;2023-05-14T03:32:41;9.40;99.90
45066;DHT22;30830;53.704;10.004;2023-05-14T03:35:07;9.40;99.90
45066;DHT22;30830;53.704;10.004;2023-05-14T03:37:33;9.40;99.90
45066;DHT22;30830;53.704;10.004;2023-05-14T03:39:58;9.40;99.90
45066;DHT22;30830;53.704;10.004;2023-05-14T03:42:25;9.40;99.90
45066;DHT22;30830;53.704;10.004;2023-05-14T03:44:51;9.30;99.90
45066;DHT22;30830;53.704;10.004;2023-05-14T03:47:17;9.30;99.90
45066;DHT22;30830;53.704;10.004;2023-05-14T03:49:42;9.40;99.90
45066;DHT22;30830;53.704;10.004;2023-05-14T03:52:08;9.40;99.90
45066;DHT22;30830;53.704;10.004;2023-05-14T03:54:33;9.50;99.90
45066;DHT22;30830;53.704;10.004;2023-05-14T03:56:59;9.50;99.90
45066;DHT22;30830;53.704;10.004;2023-05-14T03:59:24;9.50;99.90
45066;DHT22;30830;53.704;10.004;2023-05-14T04:01:50;9.50;99.90
45066;DHT22;30830;53.704;10.004;2023-05-14T04:04:15;9.60;99.90
45066;DHT22;30830;53.704;10.004;2023-05-14T04:06:41;9.60;99.90
45066;DHT22;30830;53.704;10.004;2023-05-14T04:09:07;9.60;99.90
45066;DHT22;30830;53.704;10.004;2023-05-14T04:11:32;9.60;99.90
45066;DHT22;30830;53.704;10.004;2023-05-14T04:13:58;9.60;99.90
45066;DHT22;30830;53.704;10.004;2023-05-14T04:16:23;9.70;99.90
45066;DHT22;30830;53.704;10.004;2023-05-14T04:18:49;9.70;99.90
45066;DHT22;30830;53.704;10.004;2023-05-14T04:21:14;9.80;99.90
45066;DHT22;30830;53.704;10.004;2023-05-14T04:23:40;9.80;99.90
45066;DHT22;30830;53.704;10.004;2023-05-14T04:26:05;9.80;99.90
45066;DHT22;30830;53.704;10.004;2023-05-14T04:28:31;9.80;99.90
45066;DHT22;30830;53.704;10.004;2023-05-14T04:30:56;9.90;99.90
45066;DHT22;30830;53.704;10.004;2023-05-14T04:33:22;9.90;99.90
45066;DHT22;30830;53.704;10.004;2023-05-14T04:35:48;9.90;99.90
45066;DHT22;30830;53.704;10.004;2023-05-14T04:38:13;9.90;99.90
45066;DHT22;30830;53.704;10.004;2023-05-14T04:40:39;10.00;99.90
45066;DHT22;30830;53.704;10.004;2023-05-14T04:43:06;9.90;99.90
45066;DHT22;30830;53.704;10.004;2023-05-14T04:45:32;10.00;99.90
45066;DHT22;30830;53.704;10.004;2023-05-14T04:47:58;10.00;99.90
45066;DHT22;30830;53.704;10.004;2023-05-14T04:50:23;10.10;99.90
45066;DHT22;30830;53.704;10.004;2023-05-14T04:52:49;10.10;99.90
45066;DHT22;30830;53.704;10.004;2023-05-14T04:55:14;10.20;99.90
45066;DHT22;30830;53.704;10.004;2023-05-14T04:57:41;10.20;99.90
45066;DHT22;30830;53.704;10.004;2023-05-14T05:00:07;10.30;99.90
45066;DHT22;30830;53.704;10.004;2023-05-14T05:02:35;10.30;99.90
45066;DHT22;30830;53.704;10.004;2023-05-14T05:05:02;10.30;99.90
45066;DHT22;30830;53.704;10.004;2023-05-14T05:07:28;10.40;99.90
45066;DHT22;30830;53.704;10.004;2023-05-14T05:09:53;10.50;99.90
45066;DHT22;30830;53.704;10.004;2023-05-14T05:12:19;10.60;99.90
45066;DHT22;30830;53.704;10.004;2023-05-14T05:14:45;10.60;99.90
45066;DHT22;30830;53.704;10.004;2023-05-14T05:17:11;10.70;99.90
45066;DHT22;30830;53.704;10.004;2023-05-14T05:19:36;10.80;99.90
45066;DHT22;30830;53.704;10.004;2023-05-14T05:22:02;10.90;99.90
45066;DHT22;30830;53.704;10.004;2023-05-14T05:24:28;10.90;99.90
45066;DHT22;30830;53.704;10.004;2023-05-14T05:26:53;11.00;99.90
45066;DHT22;30830;53.704;10.004;2023-05-14T05:29:20;11.10;99.90
45066;DHT22;30830;53.704;10.004;2023-05-14T05:31:46;11.20;99.90
45066;DHT22;30830;53.704;10.004;2023-05-14T05:34:12;11.20;99.90
45066;DHT22;30830;53.704;10.004;2023-05-14T05:36:37;11.30;99.90
45066;DHT22;30830;53.704;10.004;2023-05-14T05:39:03;11.40;99.90
45066;DHT22;30830;53.704;10.004;2023-05-14T05:41:28;11.50;99.90
45066;DHT22;30830;53.704;10.004;2023-05-14T05:43:54;11.60;99.90
45066;DHT22;30830;53.704;10.004;2023-05-14T05:46:20;11.70;99.90
45066;DHT22;30830;53.704;10.004;2023-05-14T05:48:45;11.80;99.90
45066;DHT22;30830;53.704;10.004;2023-05-14T05:51:11;11.90;99.90
45066;DHT22;30830;53.704;10.004;2023-05-14T05:53:37;12.10;99.90
45066;DHT22;30830;53.704;10.004;2023-05-14T05:56:02;12.20;99.90
45066;DHT22;30830;53.704;10.004;2023-05-14T05:58:28;12.40;99.90
45066;DHT22;30830;53.704;10.004;2023-05-14T06:00:54;12.50;99.90
45066;DHT22;30830;53.704;10.004;2023-05-14T06:03:21;12.70;99.90
45066;DHT22;30830;53.704;10.004;2023-05-14T06:05:47;12.90;99.90
45066;DHT22;30830;53.704;10.004;2023-05-14T06:08:13;13.20;99.90
45066;DHT22;30830;53.704;10.004;2023-05-14T06:10:38;13.30;99.90
45066;DHT22;30830;53.704;10.004;2023-05-14T06:13:04;13.60;99.90
45066;DHT22;30830;53.704;10.004;2023-05-14T06:15:29;13.80;99.90
45066;DHT22;30830;53.704;10.004;2023-05-14T06:17:55;14.10;99.90
45066;DHT22;30830;53.704;10.004;2023-05-14T06:20:20;14.30;99.90
45066;DHT22;30830;53.704;10.004;2023-05-14T06:22:46;14.50;99.90
45066;DHT22;30830;53.704;10.004;2023-05-14T06:25:11;14.80;99.90
45066;DHT22;30830;53.704;10.004;2023-05-14T06:27:37;15.00;99.90
45066;DHT22;30830;53.704;10.004;2023-05-14T06:30:03;15.20;99.90
45066;DHT22;30830;53.704;10.004;2023-05-14T06:32:29;15.40;99.90
45066;DHT22;30830;53.704;10.004;2023-05-14T06:34:54;15.70;99.90
45066;DHT22;30830;53.704;10.004;2023-05-14T06:37:20;15.90;99.90
45066;DHT22;30830;53.704;10.004;2023-05-14T06:39:45;16.10;99.90
45066;DHT22;30830;53.704;10.004;2023-05-14T06:42:17;16.40;99.90
45066;DHT22;30830;53.704;10.004;2023-05-14T06:44:43;16.60;99.90
45066;DHT22;30830;53.704;10.004;2023-05-14T06:47:09;16.80;99.90
45066;DHT22;30830;53.704;10.004;2023-05-14T06:49:35;17.00;99.90
45066;DHT22;30830;53.704;10.004;2023-05-14T06:52:01;17.10;99.90
45066;DHT22;30830;53.704;10.004;2023-05-14T06:54:26;17.30;99.90
45066;DHT22;30830;53.704;10.004;2023-05-14T06:56:52;17.40;99.90
45066;DHT22;30830;53.704;10.004;2023-05-14T06:59:18;17.50;99.90
45066;DHT22;30830;53.704;10.004;2023-05-14T07:01:43;17.70;99.90
45066;DHT22;30830;53.704;10.004;2023-05-14T07:04:09;17.90;99.90
45066;DHT22;30830;53.704;10.004;2023-05-14T07:06:35;18.10;99.90
45066;DHT22;30830;53.704;10.004;2023-05-14T07:09:01;18.30;99.90
45066;DHT22;30830;53.704;10.004;2023-05-14T07:11:27;18.40;99.90
45066;DHT22;30830;53.704;10.004;2023-05-14T07:13:52;18.50;99.90
45066;DHT22;30830;53.704;10.004;2023-05-14T07:16:18;18.70;99.90
45066;DHT22;30830;53.704;10.004;2023-05-14T07:18:44;18.80;99.90
45066;DHT22;30830;53.704;10.004;2023-05-14T07:21:10;18.90;99.90
45066;DHT22;30830;53.704;10.004;2023-05-14T07:23:35;19.10;99.90
45066;DHT22;30830;53.704;10.004;2023-05-14T07:26:03;19.30;99.90
45066;DHT22;30830;53.704;10.004;2023-05-14T07:28:29;19.40;99.90
45066;DHT22;30830;53.704;10.004;2023-05-14T07:30:55;19.60;99.90
45066;DHT22;30830;53.704;10.004;2023-05-14T07:33:20;19.70;97.40
45066;DHT22;30830;53.704;10.004;2023-05-14T07:35:46;19.80;97.70
45066;DHT22;30830;53.704;10.004;2023-05-14T07:38:12;19.90;97.10
45066;DHT22;30830;53.704;10.004;2023-05-14T07:40:37;20.20;97.20
45066;DHT22;30830;53.704;10.004;2023-05-14T07:43:04;20.50;94.30
45066;DHT22;30830;53.704;10.004;2023-05-14T07:45:29;20.60;93.70
45066;DHT22;30830;53.704;10.004;2023-05-14T07:47:55;20.80;93.40
45066;DHT22;30830;53.704;10.004;2023-05-14T07:50:21;20.80;92.80
45066;DHT22;30830;53.704;10.004;2023-05-14T07:52:47;20.80;93.40
45066;DHT22;30830;53.704;10.004;2023-05-14T07:55:12;20.90;92.30
45066;DHT22;30830;53.704;10.004;2023-05-14T07:57:38;21.10;91.40
45066;DHT22;30830;53.704;10.004;2023-05-14T08:00:10;21.20;91.10
45066;DHT22;30830;53.704;10.004;2023-05-14T08:02:36;21.30;92.10
45066;DHT22;30830;53.704;10.004;2023-05-14T08:05:02;21.30;89.60
45066;DHT22;30830;53.704;10.004;2023-05-14T08:07:28;21.50;90.10
45066;DHT22;30830;53.704;10.004;2023-05-14T08:09:54;21.60;90.00
45066;DHT22;30830;53.704;10.004;2023-05-14T08:12:20;21.60;86.90
45066;DHT22;30830;53.704;10.004;2023-05-14T08:14:46;21.70;87.10
45066;DHT22;30830;53.704;10.004;2023-05-14T08:17:11;21.80;86.70
45066;DHT22;30830;53.704;10.004;2023-05-14T08:19:37;21.90;85.70
45066;DHT22;30830;53.704;10.004;2023-05-14T08:22:03;22.00;84.70
45066;DHT22;30830;53.704;10.004;2023-05-14T08:24:29;22.00;83.00
45066;DHT22;30830;53.704;10.004;2023-05-14T08:26:55;22.00;81.50
45066;DHT22;30830;53.704;10.004;2023-05-14T08:29:20;22.10;80.90
45066;DHT22;30830;53.704;10.004;2023-05-14T08:31:47;22.00;79.10
45066;DHT22;30830;53.704;10.004;2023-05-14T08:34:13;22.10;79.70
45066;DHT22;30830;53.704;10.004;2023-05-14T08:36:38;22.30;81.00
45066;DHT22;30830;53.704;10.004;2023-05-14T08:39:04;22.50;78.50
45066;DHT22;30830;53.704;10.004;2023-05-14T08:41:32;22.70;80.10
45066;DHT22;30830;53.704;10.004;2023-05-14T08:44:12;22.90;79.30
45066;DHT22;30830;53.704;10.004;2023-05-14T08:46:39;23.10;80.60
45066;DHT22;30830;53.704;10.004;2023-05-14T08:49:25;23.40;80.60
45066;DHT22;30830;53.704;10.004;2023-05-14T08:51:53;23.60;77.40
45066;DHT22;30830;53.704;10.004;2023-05-14T08:54:19;23.60;75.00
45066;DHT22;30830;53.704;10.004;2023-05-14T08:56:48;23.60;76.30
45066;DHT22;30830;53.704;10.004;2023-05-14T08:59:15;23.80;75.80
45066;DHT22;30830;53.704;10.004;2023-05-14T09:01:47;23.90;77.00
45066;DHT22;30830;53.704;10.004;2023-05-14T09:04:19;24.00;77.60
45066;DHT22;30830;53.704;10.004;2023-05-14T09:06:48;24.00;73.80
45066;DHT22;30830;53.704;10.004;2023-05-14T09:09:14;23.90;75.00
45066;DHT22;30830;53.704;10.004;2023-05-14T09:11:41;23.70;72.10
45066;DHT22;30830;53.704;10.004;2023-05-14T09:14:06;23.80;72.70
45066;DHT22;30830;53.704;10.004;2023-05-14T09:16:32;23.80;73.40
45066;DHT22;30830;53.704;10.004;2023-05-14T09:18:58;24.00;74.50
45066;DHT22;30830;53.704;10.004;2023-05-14T09:21:24;24.00;72.70
45066;DHT22;30830;53.704;10.004;2023-05-14T09:23:53;24.10;72.70
45066;DHT22;30830;53.704;10.004;2023-05-14T09:26:23;24.00;71.40
45066;DHT22;30830;53.704;10.004;2023-05-14T09:28:52;24.00;71.50
45066;DHT22;30830;53.704;10.004;2023-05-14T09:31:18;24.00;69.60
45066;DHT22;30830;53.704;10.004;2023-05-14T09:33:52;24.00;68.60
45066;DHT22;30830;53.704;10.004;2023-05-14T09:36:18;24.10;69.30
45066;DHT22;30830;53.704;10.004;2023-05-14T09:38:43;24.00;68.40
45066;DHT22;30830;53.704;10.004;2023-05-14T09:41:09;23.80;68.20
45066;DHT22;30830;53.704;10.004;2023-05-14T09:43:35;23.70;68.00
45066;DHT22;30830;53.704;10.004;2023-05-14T09:46:00;23.60;67.80
45066;DHT22;30830;53.704;10.004;2023-05-14T09:48:26;23.30;67.90
45066;DHT22;30830;53.704;10.004;2023-05-14T09:50:51;23.00;67.90
45066;DHT22;30830;53.704;10.004;2023-05-14T09:53:17;22.90;69.80
45066;DHT22;30830;53.704;10.004;2023-05-14T09:55:44;22.90;69.70
45066;DHT22;30830;53.704;10.004;2023-05-14T09:58:09;23.10;70.50
45066;DHT22;30830;53.704;10.004;2023-05-14T10:00:36;23.30;69.40
45066;DHT22;30830;53.704;10.004;2023-05-14T10:03:06;23.30;69.20
45066;DHT22;30830;53.704;10.004;2023-05-14T10:05:36;23.40;70.10
45066;DHT22;30830;53.704;10.004;2023-05-14T10:08:32;23.40;68.00
45066;DHT22;30830;53.704;10.004;2023-05-14T10:10:57;23.50;67.10
45066;DHT22;30830;53.704;10.004;2023-05-14T10:13:30;23.20;66.00
45066;DHT22;30830;53.704;10.004;2023-05-14T10:16:05;23.00;66.60
45066;DHT22;30830;53.704;10.004;2023-05-14T10:18:38;22.80;67.60
45066;DHT22;30830;53.704;10.004;2023-05-14T10:21:05;22.60;67.10
45066;DHT22;30830;53.704;10.004;2023-05-14T10:23:33;22.40;68.00
45066;DHT22;30830;53.704;10.004;2023-05-14T10:25:59;22.50;68.40
45066;DHT22;30830;53.704;10.004;2023-05-14T10:28:25;22.60;68.70
45066;DHT22;30830;53.704;10.004;2023-05-14T10:30:50;22.90;68.90
45066;DHT22;30830;53.704;10.004;2023-05-14T10:33:16;23.10;70.10
45066;DHT22;30830;53.704;10.004;2023-05-14T10:38:33;23.20;68.10
45066;DHT22;30830;53.704;10.004;2023-05-14T10:41:03;23.00;67.20
45066;DHT22;30830;53.704;10.004;2023-05-14T10:43:31;23.00;65.90
45066;DHT22;30830;53.704;10.004;2023-05-14T10:46:00;22.80;65.50
45066;DHT22;30830;53.704;10.004;2023-05-14T10:48:25;22.70;65.40
45066;DHT22;30830;53.704;10.004;2023-05-14T10:50:52;22.60;63.50
45066;DHT22;30830;53.704;10.004;2023-05-14T10:53:18;22.50;67.10
45066;DHT22;30830;53.704;10.004;2023-05-14T10:55:44;22.50;65.60
45066;DHT22;30830;53.704;10.004;2023-05-14T10:58:10;22.40;64.40
45066;DHT22;30830;53.704;10.004;2023-05-14T11:00:37;22.50;66.70
45066;DHT22;30830;53.704;10.004;2023-05-14T11:03:04;22.60;66.20
45066;DHT22;30830;53.704;10.004;2023-05-14T11:05:31;22.70;66.40
45066;DHT22;30830;53.704;10.004;2023-05-14T11:07:57;22.80;64.30
45066;DHT22;30830;53.704;10.004;2023-05-14T11:10:23;23.00;64.70
45066;DHT22;30830;53.704;10.004;2023-05-14T11:12:55;23.00;63.60
45066;DHT22;30830;53.704;10.004;2023-05-14T11:15:22;23.00;63.80
45066;DHT22;30830;53.704;10.004;2023-05-14T11:17:49;22.90;64.30
45066;DHT22;30830;53.704;10.004;2023-05-14T11:20:16;22.90;63.80
45066;DHT22;30830;53.704;10.004;2023-05-14T11:22:43;22.80;62.70
45066;DHT22;30830;53.704;10.004;2023-05-14T11:25:10;22.70;63.10
45066;DHT22;30830;53.704;10.004;2023-05-14T11:27:39;22.60;64.60
45066;DHT22;30830;53.704;10.004;2023-05-14T11:30:15;22.50;63.30
45066;DHT22;30830;53.704;10.004;2023-05-14T11:32:42;22.40;64.90
45066;DHT22;30830;53.704;10.004;2023-05-14T11:35:08;22.40;66.20
45066;DHT22;30830;53.704;10.004;2023-05-14T11:37:34;22.30;64.50
45066;DHT22;30830;53.704;10.004;2023-05-14T11:40:00;22.30;65.30
45066;DHT22;30830;53.704;10.004;2023-05-14T11:42:26;22.30;65.40
45066;DHT22;30830;53.704;10.004;2023-05-14T11:44:52;22.30;65.90
45066;DHT22;30830;53.704;10.004;2023-05-14T11:47:21;22.30;65.50
45066;DHT22;30830;53.704;10.004;2023-05-14T11:49:47;22.40;67.30
45066;DHT22;30830;53.704;10.004;2023-05-14T11:52:15;22.30;66.50
45066;DHT22;30830;53.704;10.004;2023-05-14T11:54:43;22.40;65.70
45066;DHT22;30830;53.704;10.004;2023-05-14T11:57:22;22.40;64.90
45066;DHT22;30830;53.704;10.004;2023-05-14T11:59:50;22.30;65.00
45066;DHT22;30830;53.704;10.004;2023-05-14T12:02:20;22.30;67.10
45066;DHT22;30830;53.704;10.004;2023-05-14T12:04:49;22.30;65.50
45066;DHT22;30830;53.704;10.004;2023-05-14T12:07:16;22.30;67.60
45066;DHT22;30830;53.704;10.004;2023-05-14T12:09:44;22.30;67.30
45066;DHT22;30830;53.704;10.004;2023-05-14T12:12:20;22.30;65.80
45066;DHT22;30830;53.704;10.004;2023-05-14T12:14:47;22.30;67.60
45066;DHT22;30830;53.704;10.004;2023-05-14T12:17:20;22.30;69.70
45066;DHT22;30830;53.704;10.004;2023-05-14T12:19:50;22.40;69.60
45066;DHT22;30830;53.704;10.004;2023-05-14T12:22:18;22.60;70.80
45066;DHT22;30830;53.704;10.004;2023-05-14T12:24:56;22.80;69.30
45066;DHT22;30830;53.704;10.004;2023-05-14T12:27:26;23.10;68.40
45066;DHT22;30830;53.704;10.004;2023-05-14T12:29:58;23.20;69.00
45066;DHT22;30830;53.704;10.004;2023-05-14T12:32:25;23.20;67.90
45066;DHT22;30830;53.704;10.004;2023-05-14T12:34:50;23.30;67.50
45066;DHT22;30830;53.704;10.004;2023-05-14T12:37:16;23.40;68.50
45066;DHT22;30830;53.704;10.004;2023-05-14T12:39:43;23.60;69.70
45066;DHT22;30830;53.704;10.004;2023-05-14T12:42:08;23.70;64.80
45066;DHT22;30830;53.704;10.004;2023-05-14T12:44:34;23.90;67.00
45066;DHT22;30830;53.704;10.004;2023-05-14T12:46:59;24.10;64.50
45066;DHT22;30830;53.704;10.004;2023-05-14T12:49:25;24.20;64.20
45066;DHT22;30830;53.704;10.004;2023-05-14T12:51:50;24.30;63.50
45066;DHT22;30830;53.704;10.004;2023-05-14T12:54:16;24.10;63.80
45066;DHT22;30830;53.704;10.004;2023-05-14T12:56:41;24.00;63.60
45066;DHT22;30830;53.704;10.004;2023-05-14T12:59:07;24.00;63.40
45066;DHT22;30830;53.704;10.004;2023-05-14T13:01:33;23.90;64.40
45066;DHT22;30830;53.704;10.004;2023-05-14T13:04:01;23.70;65.10
45066;DHT22;30830;53.704;10.004;2023-05-14T13:06:26;23.50;63.90
45066;DHT22;30830;53.704;10.004;2023-05-14T13:08:52;23.20;65.00
45066;DHT22;30830;53.704;10.004;2023-05-14T13:11:17;23.10;66.60
45066;DHT22;30830;53.704;10.004;2023-05-14T13:13:43;23.00;65.50
45066;DHT22;30830;53.704;10.004;2023-05-14T13:16:08;22.90;65.00
45066;DHT22;30830;53.704;10.004;2023-05-14T13:18:34;22.70;65.60
45066;DHT22;30830;53.704;10.004;2023-05-14T13:21:00;22.70;66.70
45066;DHT22;30830;53.704;10.004;2023-05-14T13:23:28;22.60;65.60
45066;DHT22;30830;53.704;10.004;2023-05-14T13:25:54;22.50;65.60
45066;DHT22;30830;53.704;10.004;2023-05-14T13:28:19;22.40;66.10
45066;DHT22;30830;53.704;10.004;2023-05-14T13:31:06;22.40;65.70
45066;DHT22;30830;53.704;10.004;2023-05-14T13:33:36;22.50;65.80
45066;DHT22;30830;53.704;10.004;2023-05-14T13:36:02;22.50;65.70
45066;DHT22;30830;53.704;10.004;2023-05-14T13:38:28;22.60;65.70
45066;DHT22;30830;53.704;10.004;2023-05-14T13:40:54;22.60;67.60
45066;DHT22;30830;53.704;10.004;2023-05-14T13:43:22;22.80;67.40
45066;DHT22;30830;53.704;10.004;2023-05-14T13:45:48;22.80;64.00
45066;DHT22;30830;53.704;10.004;2023-05-14T13:48:14;22.70;64.00
45066;DHT22;30830;53.704;10.004;2023-05-14T13:50:39;22.70;63.70
45066;DHT22;30830;53.704;10.004;2023-05-14T13:53:05;22.70;64.30
45066;DHT22;30830;53.704;10.004;2023-05-14T13:55:30;22.70;64.30
45066;DHT22;30830;53.704;10.004;2023-05-14T13:57:56;22.70;65.30
45066;DHT22;30830;53.704;10.004;2023-05-14T14:00:23;22.80;65.70
45066;DHT22;30830;53.704;10.004;2023-05-14T14:02:49;22.80;65.50
45066;DHT22;30830;53.704;10.004;2023-05-14T14:05:14;22.80;66.00
45066;DHT22;30830;53.704;10.004;2023-05-14T14:07:40;22.90;66.70
45066;DHT22;30830;53.704;10.004;2023-05-14T14:10:06;22.80;65.80
45066;DHT22;30830;53.704;10.004;2023-05-14T14:12:32;22.80;68.50
45066;DHT22;30830;53.704;10.004;2023-05-14T14:14:57;22.70;65.90
45066;DHT22;30830;53.704;10.004;2023-05-14T14:17:23;22.50;67.50
45066;DHT22;30830;53.704;10.004;2023-05-14T14:19:49;22.30;65.20
45066;DHT22;30830;53.704;10.004;2023-05-14T14:22:14;22.20;67.80
45066;DHT22;30830;53.704;10.004;2023-05-14T14:24:41;22.20;66.70
45066;DHT22;30830;53.704;10.004;2023-05-14T14:27:07;22.10;66.30
45066;DHT22;30830;53.704;10.004;2023-05-14T14:29:35;22.10;63.60
45066;DHT22;30830;53.704;10.004;2023-05-14T14:32:01;22.10;64.40
45066;DHT22;30830;53.704;10.004;2023-05-14T14:34:27;22.10;66.10
45066;DHT22;30830;53.704;10.004;2023-05-14T14:36:52;22.10;66.90
45066;DHT22;30830;53.704;10.004;2023-05-14T14:39:18;22.10;66.20
45066;DHT22;30830;53.704;10.004;2023-05-14T14:41:43;22.10;64.40
45066;DHT22;30830;53.704;10.004;2023-05-14T14:44:09;22.00;65.90
45066;DHT22;30830;53.704;10.004;2023-05-14T14:46:35;22.10;65.50
45066;DHT22;30830;53.704;10.004;2023-05-14T14:49:00;22.10;66.80
45066;DHT22;30830;53.704;10.004;2023-05-14T14:51:26;22.10;65.50
45066;DHT22;30830;53.704;10.004;2023-05-14T14:53:51;22.00;65.80
45066;DHT22;30830;53.704;10.004;2023-05-14T14:56:17;22.00;65.10
45066;DHT22;30830;53.704;10.004;2023-05-14T14:58:42;22.10;66.50
45066;DHT22;30830;53.704;10.004;2023-05-14T15:01:09;22.10;66.00
45066;DHT22;30830;53.704;10.004;2023-05-14T15:03:35;22.10;66.40
45066;DHT22;30830;53.704;10.004;2023-05-14T15:06:00;22.10;67.20
45066;DHT22;30830;53.704;10.004;2023-05-14T15:08:27;22.20;68.10
45066;DHT22;30830;53.704;10.004;2023-05-14T15:10:54;22.20;68.20
45066;DHT22;30830;53.704;10.004;2023-05-14T15:13:19;22.00;64.20
45066;DHT22;30830;53.704;10.004;2023-05-14T15:15:45;21.90;65.70
45066;DHT22;30830;53.704;10.004;2023-05-14T15:18:11;22.00;66.50
45066;DHT22;30830;53.704;10.004;2023-05-14T15:20:37;21.90;64.40